PST,Max TemperatureF,Mean TemperatureF,Min TemperatureF,Max Dew PointF,MeanDew PointF,Min DewpointF,Max Humidity, Mean Humidity, Min Humidity, Max Sea Level PressureIn, Mean Sea Level PressureIn, Min Sea Level PressureIn, Max VisibilityMiles, Mean VisibilityMiles, Min VisibilityMiles, Max Wind SpeedMPH, Mean Wind SpeedMPH, Max Gust SpeedMPH,PrecipitationIn, CloudCover, Events, WindDirDegrees
2013-1-1,41,34,28,33,30,27,93,82,67,30.50,30.44,30.35,10,9,0,9,3,,0.00,2,Fog,12
2013-1-2,39,34,30,34,30,28,100,90,73,30.35,30.28,30.18,10,3,0,4,0,,0.00,2,Fog,296
2013-1-3,39,34,30,36,31,28,100,88,65,30.21,30.15,30.12,10,4,0,5,1,,0.14,6,Fog-Rain,288
2013-1-4,48,42,37,43,40,35,93,89,77,30.32,30.23,30.16,10,8,2,12,3,,0.08,6,Rain,193
2013-1-5,44,42,41,41,39,37,96,88,76,30.21,30.16,30.13,10,6,1,10,2,,0.10,8,Rain,207
2013-1-6,45,42,39,39,37,35,89,84,74,30.20,30.13,29.99,10,10,9,13,7,20,0.13,7,Rain,189
2013-1-7,50,46,42,46,42,37,93,85,71,30.17,29.99,29.84,10,9,2,22,13,33,0.09,8,Rain,194
2013-1-8,52,47,42,47,43,39,93,86,76,30.17,29.94,29.75,10,7,1,31,10,43,0.46,8,Rain,192
2013-1-9,50,44,36,46,38,32,93,88,79,29.96,29.80,29.69,10,8,2,20,13,32,0.87,7,Rain,206
2013-1-10,37,35,33,34,32,30,93,86,79,30.13,30.05,29.95,10,10,7,9,5,,0.02,8,Rain,231
2013-1-11,37,34,30,29,24,20,85,69,50,30.34,30.27,30.13,10,10,10,9,4,,0.00,1,,13
2013-1-12,36,32,27,27,24,21,85,73,55,30.45,30.39,30.33,10,10,10,6,1,,0.00,3,,6
2013-1-13,35,32,28,27,25,22,86,78,61,30.51,30.47,30.43,10,10,9,5,0,,0.00,3,,330
2013-1-14,34,31,28,30,27,23,93,83,73,30.58,30.53,30.49,10,10,6,6,2,,0.00,5,,185
2013-1-15,42,37,32,34,30,28,89,81,62,30.71,30.66,30.58,10,10,8,10,2,,0.00,5,,355
2013-1-16,41,34,28,34,30,27,100,90,73,30.68,30.62,30.51,10,3,0,5,1,,0.00,2,Fog,357
2013-1-17,37,34,30,36,33,30,100,92,87,30.53,30.43,30.31,7,2,0,5,0,,0.00,7,Fog,273
2013-1-18,37,34,32,34,32,30,96,91,82,30.35,30.30,30.26,10,4,0,7,2,,0.00,8,Fog,24
2013-1-19,39,36,33,34,33,32,100,91,80,30.39,30.36,30.34,10,3,0,7,3,,0.00,8,Fog,24
2013-1-20,39,36,33,36,34,33,100,93,86,30.40,30.34,30.27,6,1,0,5,1,,0.00,8,Fog,34
2013-1-21,37,35,33,36,33,30,100,93,87,30.28,30.20,30.14,5,2,0,5,1,,0.00,8,Fog,30
2013-1-22,39,34,32,35,32,30,96,90,79,30.15,30.06,29.93,10,3,0,4,0,,0.00,6,Fog,279
2013-1-23,41,39,37,37,36,32,89,85,73,30.15,29.96,29.85,10,8,3,16,7,22,0.18,7,Rain,190
2013-1-24,43,40,37,39,37,34,93,88,79,30.22,30.14,30.06,10,9,5,14,5,,0.18,5,Rain,205
2013-1-25,51,45,39,43,41,36,93,82,71,30.06,30.00,29.93,10,10,8,14,4,18,0.03,6,Rain,202
2013-1-26,46,42,39,38,37,35,87,81,68,30.04,29.95,29.88,10,10,10,16,7,23,0.05,7,Rain,183
2013-1-27,41,40,39,37,36,36,93,86,81,30.08,30.03,30.00,10,10,8,15,9,23,0.03,8,Rain,194
2013-1-28,44,42,39,39,37,34,89,83,79,30.10,30.05,30.01,10,10,9,12,6,16,0.04,8,Rain,205
2013-1-29,48,46,43,43,41,39,87,83,74,30.36,30.28,30.12,10,10,5,16,7,24,0.12,8,Rain,199
2013-1-30,48,47,46,46,44,41,93,89,81,30.39,30.36,30.32,10,9,5,16,12,25,0.06,8,Rain,195
2013-1-31,50,48,45,45,43,42,93,87,77,30.41,30.36,30.31,10,9,3,12,6,,0.04,8,Rain,196